createdAt,value
2022-08-12T00:02:03.128Z,88.7
2022-08-12T00:03:42.375Z,89.1
2022-08-12T00:06:03.911Z,89.4
2022-08-12T00:07:53.341Z,90.2
2022-08-12T00:09:57.182Z,90.4
2022-08-12T00:12:01.038Z,90.6
2022-08-12T00:15:08.477Z,91.1
2022-08-12T00:17:12.292Z,91.3
2022-08-12T00:19:16.129Z,91.6
2022-08-12T00:21:24.860Z,92
2022-08-12T00:23:27.174Z,92.2
2022-08-12T00:26:01.393Z,92.5
2022-08-12T00:33:52.290Z,93.3
2022-08-12T00:37:57.394Z,93.9
2022-08-12T00:42:05.088Z,94.2
2022-08-12T00:44:08.922Z,94.3
2022-08-12T00:48:16.624Z,94.7
2022-08-12T00:50:23.746Z,95.1
2022-08-12T00:52:27.588Z,95.3
2022-08-12T00:56:35.290Z,95.7
2022-08-12T01:02:46.853Z,96.2
2022-08-12T01:04:53.999Z,96.6
2022-08-12T01:06:57.842Z,96.9
2022-08-12T01:09:01.712Z,97
2022-08-12T01:10:05.304Z,97.3
2022-08-12T01:12:09.133Z,97.4
2022-08-12T01:14:12.995Z,97.6
2022-08-12T01:16:16.861Z,97.8
2022-08-12T01:18:25.645Z,98.1
2022-08-12T01:20:29.452Z,98.2
2022-08-12T01:24:37.181Z,98.4
2022-08-12T01:28:44.900Z,98.6
2022-08-12T01:30:48.791Z,98.7
2022-08-12T01:32:55.960Z,98.9
2022-08-12T01:34:59.816Z,99
2022-08-12T01:37:03.679Z,99.1
2022-08-12T01:39:07.538Z,99.2
2022-08-12T01:41:11.398Z,99.4
2022-08-12T01:43:15.271Z,99.5
2022-08-12T01:45:19.143Z,99.6
2022-08-12T01:47:26.263Z,99.8
2022-08-12T01:49:30.108Z,99.8
2022-08-12T01:52:21.550Z,99.9
2022-08-12T01:53:50.192Z,99.9
2022-08-12T01:55:41.689Z,99.9
2022-08-12T01:57:59.518Z,99.9
2022-08-12T01:59:49.410Z,99.9
2022-08-12T02:01:56.733Z,99.9
2022-08-12T02:04:00.420Z,99.9
2022-08-12T02:06:04.291Z,99.9
2022-08-12T02:07:07.867Z,99.9
2022-08-12T02:09:11.740Z,99.9
2022-08-12T02:11:15.598Z,99.9
2022-08-12T02:13:41.795Z,99.9
2022-08-12T02:15:26.595Z,99.9
2022-08-12T02:17:55.819Z,99.9
2022-08-12T02:21:38.178Z,99.9
2022-08-12T02:23:42.030Z,99.9
2022-08-12T02:25:45.908Z,99.9
2022-08-12T02:27:49.746Z,99.9
2022-08-12T02:29:56.893Z,99.9
2022-08-12T02:32:00.778Z,99.9
2022-08-12T02:36:08.527Z,99.9
2022-08-12T02:40:16.234Z,99.9
2022-08-12T02:48:34.969Z,99.9
2022-08-12T02:50:38.806Z,99.9
2022-08-12T02:54:46.605Z,99.9
2022-08-12T02:56:51.072Z,99.9
2022-08-12T02:58:57.563Z,99.9
2022-08-12T03:01:01.533Z,99.9
2022-08-12T03:03:05.346Z,99.9
2022-08-12T03:05:30.465Z,99.9
2022-08-12T03:07:56.265Z,99.9
2022-08-12T03:09:42.186Z,99.9
2022-08-12T03:11:48.707Z,99.9
2022-08-12T03:13:49.199Z,99.9
2022-08-12T03:18:25.423Z,99.9
2022-08-12T03:20:09.748Z,99.9
2022-08-12T03:22:08.885Z,99.9
2022-08-12T03:24:08.576Z,99.9
2022-08-12T03:26:15.737Z,99.9
2022-08-12T03:28:23.931Z,99.9
2022-08-12T03:30:23.482Z,99.9
2022-08-12T03:32:35.227Z,99.9
2022-08-12T03:36:35.637Z,99.9
2022-08-12T03:38:38.981Z,99.9
2022-08-12T03:40:46.102Z,99.9
2022-08-12T03:42:49.994Z,99.9
2022-08-12T03:44:53.866Z,99.9
2022-08-12T03:46:57.724Z,99.9
2022-08-12T03:49:01.620Z,99.9
2022-08-12T03:51:05.490Z,99.9
2022-08-12T03:53:09.362Z,99.9
2022-08-12T03:55:16.494Z,99.9
2022-08-12T04:00:27.831Z,99.9
2022-08-12T04:04:35.595Z,99.9
2022-08-12T04:08:46.670Z,99.9
2022-08-12T04:10:50.561Z,99.9
2022-08-12T04:14:58.329Z,99.9
2022-08-12T04:17:02.228Z,99.9
2022-08-12T04:19:06.086Z,99.9
2022-08-12T04:21:09.990Z,99.9
2022-08-12T04:23:17.154Z,99.9
2022-08-12T04:27:24.934Z,99.9
2022-08-12T04:30:30.033Z,99.9
2022-08-12T04:33:36.533Z,99.9
2022-08-12T04:35:40.439Z,99.9
2022-08-12T04:37:59.479Z,99.9
2022-08-12T04:41:58.363Z,99.9
2022-08-12T04:44:02.189Z,99.9
2022-08-12T04:46:03.154Z,99.9
2022-08-12T04:48:07.203Z,99.9
2022-08-12T04:50:34.606Z,99.9
2022-08-12T04:52:18.066Z,99.9
2022-08-12T04:56:25.848Z,99.9
2022-08-12T05:01:37.208Z,99.9
2022-08-12T05:05:48.285Z,99.9
2022-08-12T05:10:00.586Z,99.9
2022-08-12T05:14:03.784Z,99.9
2022-08-12T05:18:19.414Z,99.9
2022-08-12T05:20:18.692Z,99.9
2022-08-12T05:26:30.335Z,99.9
2022-08-12T05:28:34.192Z,99.9
2022-08-12T05:30:38.039Z,99.9
2022-08-12T05:32:42.189Z,99.9
2022-08-12T05:34:49.082Z,99.9
2022-08-12T05:38:56.836Z,99.9
2022-08-12T05:41:00.721Z,99.9
2022-08-12T05:45:08.482Z,99.9
2022-08-12T05:47:12.330Z,99.9
2022-08-12T05:53:27.214Z,98.3
2022-08-12T05:58:38.505Z,88.4
2022-08-12T06:02:49.514Z,92.5
2022-08-12T06:11:04.953Z,93.4
2022-08-12T06:13:08.818Z,89
2022-08-12T06:15:12.665Z,88.4
2022-08-12T06:25:35.234Z,94.6
2022-08-12T06:30:10.300Z,95.5
2022-08-12T06:31:50.099Z,95.9
2022-08-12T06:33:57.616Z,95.8
2022-08-12T06:35:58.877Z,95.7
2022-08-12T06:40:05.466Z,94.8
2022-08-12T06:44:13.136Z,93.8
2022-08-12T06:48:24.075Z,88.8
2022-08-12T06:50:27.923Z,87.3
2022-08-12T06:52:52.802Z,74.2
2022-08-12T06:54:56.619Z,73.4
2022-08-12T06:57:04.340Z,69.8
2022-08-12T06:59:07.536Z,66.6
2022-08-12T07:01:11.396Z,65.2
2022-08-12T07:03:16.264Z,63.7
2022-08-12T07:05:18.903Z,63
2022-08-12T07:09:56.604Z,60.5
2022-08-12T07:11:30.233Z,59.8
2022-08-12T07:13:37.322Z,58.5
2022-08-12T07:15:42.725Z,58.4
2022-08-12T07:17:46.436Z,57
2022-08-12T07:19:50.199Z,55.9
2022-08-12T07:23:57.687Z,54.7
2022-08-12T07:26:01.453Z,53.9
2022-08-12T07:28:08.998Z,53.2
2022-08-12T07:30:12.115Z,53
2022-08-12T07:32:15.857Z,53.3
2022-08-12T07:34:19.479Z,52.9
2022-08-12T07:36:23.068Z,52.6
2022-08-12T07:38:29.125Z,52.4
2022-08-12T07:40:30.263Z,52.1
2022-08-12T07:47:47.664Z,53.3
2022-08-12T07:50:04.388Z,52.6
2022-08-12T07:51:54.801Z,52
2022-08-12T07:54:00.786Z,51.6
2022-08-12T07:56:05.208Z,51.2
2022-08-12T07:58:08.760Z,50.9
2022-08-12T08:00:12.295Z,50.9
2022-08-12T08:02:15.862Z,50.9
2022-08-12T08:04:19.691Z,50.3
2022-08-12T08:06:22.971Z,50.3
2022-08-12T08:08:26.499Z,50.3
2022-08-12T08:10:33.249Z,49.9
2022-08-12T08:12:36.779Z,49.8
2022-08-12T08:14:40.345Z,49.8
2022-08-12T08:16:43.849Z,49.7
2022-08-12T08:18:47.364Z,49.5
2022-08-12T08:20:51.042Z,49.5
2022-08-12T08:22:54.397Z,49.4
2022-08-12T08:25:01.147Z,49.4
2022-08-12T08:29:08.163Z,48.9
2022-08-12T08:31:11.705Z,48.3
2022-08-12T08:33:23.081Z,47.9
2022-08-12T08:35:18.677Z,47.5
2022-08-12T08:37:22.167Z,47.1
2022-08-12T08:39:28.929Z,47
2022-08-12T08:42:14.186Z,47
2022-08-12T08:43:43.806Z,46.3
2022-08-12T08:44:39.225Z,44.8
2022-08-12T08:48:46.165Z,43.4
2022-08-12T08:51:04.521Z,42.6
2022-08-12T08:52:56.330Z,42.6
2022-08-12T08:54:50.726Z,42.7
2022-08-12T19:24:15.068Z,42.4
2022-08-12T19:26:18.640Z,42.6
2022-08-12T19:30:41.075Z,43
2022-08-12T19:32:44.656Z,43.3
2022-08-12T19:36:55.063Z,44
2022-08-12T19:38:58.605Z,44.5
2022-08-12T19:41:02.415Z,44.8
2022-08-12T19:43:17.236Z,45.1
2022-08-12T19:45:12.098Z,45.3
2022-08-12T19:47:16.347Z,45.7
2022-08-12T19:49:19.799Z,46.8
2022-08-12T19:51:24.777Z,47.2
2022-08-12T19:53:27.611Z,47.6
2022-08-12T19:55:30.667Z,48.2
2022-08-12T20:02:03.207Z,49.3
2022-08-12T20:03:59.378Z,50
2022-08-12T20:07:58.925Z,50.3
2022-08-12T20:09:59.690Z,50.1
2022-08-12T20:12:09.323Z,50.1
2022-08-12T20:14:07.317Z,49.9
2022-08-12T20:16:32.273Z,49.7
2022-08-12T20:18:43.685Z,49.3
2022-08-12T20:20:27.794Z,49.2
2022-08-12T20:22:31.371Z,49
2022-08-12T20:23:37.067Z,48.9
2022-08-12T20:28:04.559Z,48.8
2022-08-12T20:31:47.182Z,48.4
2022-08-12T20:33:56.142Z,48.1
2022-08-12T20:36:13.968Z,47.9
2022-08-12T20:38:07.201Z,47.6
2022-08-12T20:40:05.347Z,47.2
2022-08-12T20:42:07.492Z,46.8
2022-08-12T20:44:16.879Z,46.5
2022-08-12T20:46:16.673Z,45.9
2022-08-12T20:48:20.411Z,45.7
2022-08-12T20:50:24.163Z,45.6
2022-08-12T20:52:30.237Z,45.6
2022-08-12T20:54:32.737Z,46
2022-08-12T20:58:39.175Z,47.1
2022-08-12T21:00:46.255Z,47.6
2022-08-12T21:06:57.504Z,47.6
2022-08-12T21:13:20.453Z,47.9
2022-08-12T21:17:19.545Z,48
2022-08-12T21:19:24.044Z,48.2
2022-08-12T21:20:26.855Z,48.3
2022-08-12T21:24:34.359Z,48.4
2022-08-12T21:26:40.021Z,48.5
2022-08-12T21:28:58.253Z,48.5
2022-08-12T21:31:11.567Z,48.5
2022-08-12T21:32:52.862Z,48.4
2022-08-12T21:34:56.483Z,48.6
2022-08-12T21:37:01.751Z,48.7
2022-08-12T21:39:18.898Z,48.7
2022-08-12T21:41:09.309Z,49
2022-08-12T21:43:14.908Z,49.4
2022-08-12T21:45:47.936Z,49.5
2022-08-12T21:47:22.692Z,49.8
2022-08-12T21:49:53.699Z,50.4
2022-08-12T21:51:50.209Z,51.2
2022-08-12T21:54:07.037Z,51.6
2022-08-12T21:55:37.514Z,52
2022-08-12T21:59:48.353Z,52.8
2022-08-12T22:01:52.152Z,52.7
2022-08-12T22:04:03.023Z,52.7
2022-08-12T22:05:59.657Z,52.7
2022-08-12T22:08:03.465Z,52.7
2022-08-12T22:10:07.231Z,52.9
2022-08-12T22:12:17.711Z,54.4
2022-08-12T22:14:23.711Z,54.9
2022-08-12T22:16:21.899Z,55.2
2022-08-12T22:23:52.016Z,57.2
2022-08-12T22:25:44.987Z,58
2022-08-12T22:27:48.761Z,58.3
2022-08-12T22:29:52.543Z,58.7
2022-08-12T22:31:56.343Z,59
2022-08-12T22:34:00.289Z,59.5
2022-08-12T22:36:03.952Z,59.9
2022-08-12T22:38:07.743Z,60.3
2022-08-12T22:48:30.721Z,61.5
2022-08-12T22:50:33.917Z,61.8
2022-08-12T22:52:37.729Z,62.1
2022-08-12T22:56:48.692Z,63.3
2022-08-12T22:58:52.488Z,63.7
2022-08-12T23:00:56.345Z,63.9
2022-08-12T23:03:02.905Z,64.2
2022-08-12T23:07:07.763Z,64.8
2022-08-12T23:09:14.855Z,65.3
2022-08-12T23:11:23.887Z,65.5
2022-08-12T23:13:22.533Z,65.5
2022-08-12T23:15:54.544Z,65.4
2022-08-12T23:17:51.443Z,65.5
2022-08-12T23:19:55.284Z,65.6
2022-08-12T23:22:06.761Z,65.9
2022-08-12T23:24:10.413Z,66
2022-08-12T23:26:10.050Z,66.2
2022-08-12T23:30:24.766Z,66.4
2022-08-12T23:40:40.168Z,68.1
2022-08-12T23:42:44.107Z,68.4
2022-08-12T23:44:47.809Z,68.6
2022-08-12T23:55:23.211Z,69.4
2022-08-12T23:59:17.989Z,69.4
